Time;durP1;ratioP1;P1;durP2;ratioP2;P2;SDS_P1;SDS_P2;PMS_P1;PMS_P2;Temp;Humidity;BMP_temperature;BMP_pressure;BME280_temperature;BME280_humidity;BME280_pressure;Samples;Min_cycle;Max_cycle;Signal;HPM_P1;HPM_P2
2024/02/08 00:02:31;;;;;;;1.60;1.30;;;5.20;98.20;;;;;;6170107;23;20811;-86
2024/02/08 00:05:01;;;;;;;1.60;1.30;;;5.20;98.20;;;;;;6182245;23;20504;-83
2024/02/08 00:07:39;;;;;;;1.60;1.30;;;5.20;98.20;;;;;;6171024;23;20531;-84
2024/02/08 00:12:50;;;;;;;1.67;1.40;;;5.10;98.20;;;;;;6161154;23;20455;-84
2024/02/08 00:15:29;;;;;;;1.60;1.30;;;5.10;98.20;;;;;;6193320;23;20436;-84
2024/02/08 00:17:56;;;;;;;1.60;1.40;;;5.10;98.20;;;;;;6166021;23;20503;-82
2024/02/08 00:20:38;;;;;;;1.60;1.30;;;5.10;98.20;;;;;;6180899;23;20435;-84
2024/02/08 00:23:17;;;;;;;1.60;1.40;;;5.10;98.20;;;;;;6166888;23;20451;-85
2024/02/08 00:25:47;;;;;;;1.60;1.30;;;5.10;98.20;;;;;;6193093;23;20436;-84
2024/02/08 00:28:14;;;;;;;1.60;1.30;;;5.20;98.20;;;;;;6142384;23;20780;-83
2024/02/08 00:30:42;;;;;;;1.63;1.40;;;5.20;98.20;;;;;;6191976;23;20408;-82
2024/02/08 00:33:09;;;;;;;1.60;1.30;;;5.20;98.20;;;;;;6165406;23;20450;-83
2024/02/08 00:35:36;;;;;;;1.60;1.30;;;5.20;98.20;;;;;;6180872;23;21015;-82
2024/02/08 00:38:03;;;;;;;1.60;1.30;;;5.20;98.20;;;;;;6165329;23;20444;-82
2024/02/08 00:40:30;;;;;;;1.60;1.40;;;5.10;98.20;;;;;;6191225;23;20427;-83
2024/02/08 00:42:57;;;;;;;1.60;1.30;;;5.10;98.20;;;;;;6165626;23;20884;-83
2024/02/08 00:45:28;;;;;;;1.60;1.30;;;5.10;98.20;;;;;;6193392;23;20701;-86
2024/02/08 00:47:59;;;;;;;1.60;1.40;;;5.10;98.20;;;;;;6166669;23;20451;-82
2024/02/08 00:50:26;;;;;;;1.63;1.30;;;5.10;98.20;;;;;;6181559;23;20400;-82
2024/02/08 00:53:05;;;;;;;1.60;1.20;;;5.10;98.20;;;;;;6165821;23;20454;-83
2024/02/08 00:58:18;;;;;;;1.70;1.53;;;5.10;98.20;;;;;;6142129;23;20967;-86
2024/02/08 01:00:47;;;;;;;1.63;1.33;;;5.10;98.20;;;;;;6192323;23;20416;-86
2024/02/08 01:03:17;;;;;;;1.70;1.40;;;5.10;98.20;;;;;;6164000;23;20462;-85
2024/02/08 01:05:53;;;;;;;1.67;1.40;;;5.10;98.20;;;;;;6183176;23;20515;-84
2024/02/08 01:11:06;;;;;;;1.60;1.30;;;5.10;98.20;;;;;;6164427;23;20459;-87
2024/02/08 01:13:35;;;;;;;1.63;1.40;;;5.10;98.20;;;;;;6191355;23;20434;-86
2024/02/08 01:16:03;;;;;;;5.53;5.23;;;5.10;98.20;;;;;;6166786;23;20478;-84
2024/02/08 01:18:35;;;;;;;1.60;1.40;;;5.10;98.20;;;;;;6181335;23;20424;-84
2024/02/08 01:21:21;;;;;;;1.60;1.30;;;5.20;98.20;;;;;;6175245;23;20929;-85
2024/02/08 01:23:55;;;;;;;1.60;1.23;;;5.10;98.20;;;;;;6180323;23;20408;-86
2024/02/08 01:26:24;;;;;;;1.60;1.30;;;5.10;98.20;;;;;;6175000;23;20795;-87
2024/02/08 01:28:54;;;;;;;1.60;1.40;;;5.10;98.20;;;;;;6181232;23;20457;-84
2024/02/08 01:31:35;;;;;;;1.60;1.30;;;5.10;98.20;;;;;;6174533;23;21024;-85
2024/02/08 01:34:07;;;;;;;1.60;1.30;;;5.20;98.20;;;;;;6190019;23;20430;-87
2024/02/08 01:36:39;;;;;;;1.60;1.27;;;5.20;98.20;;;;;;6171580;23;20502;-85
2024/02/08 01:39:13;;;;;;;1.60;1.30;;;5.20;98.20;;;;;;6191804;23;20443;-85
2024/02/08 01:42:03;;;;;;;1.60;1.30;;;5.20;98.20;;;;;;6166860;23;20452;-85
2024/02/08 01:44:29;;;;;;;1.60;1.30;;;5.20;98.20;;;;;;6191968;23;20780;-83
2024/02/08 01:47:04;;;;;;;1.60;1.30;;;5.20;98.20;;;;;;6166707;23;20575;-84
2024/02/08 01:49:40;;;;;;;1.70;1.47;;;5.20;98.20;;;;;;6190686;23;20419;-86
2024/02/08 01:52:12;;;;;;;1.60;1.30;;;5.10;98.20;;;;;;6170991;23;20447;-85
2024/02/08 01:54:43;;;;;;;1.60;1.40;;;5.20;98.20;;;;;;6191856;23;20444;-86
2024/02/08 01:57:18;;;;;;;1.70;1.47;;;5.20;98.20;;;;;;6170793;23;20452;-84
2024/02/08 01:59:52;;;;;;;1.60;1.30;;;5.20;98.20;;;;;;6191843;23;20486;-85
2024/02/08 02:02:35;;;;;;;1.60;1.30;;;5.20;98.20;;;;;;6170275;23;20974;-85
2024/02/08 02:05:17;;;;;;;1.60;1.40;;;5.20;98.20;;;;;;6183060;23;20440;-85
2024/02/08 02:07:48;;;;;;;1.60;1.27;;;5.20;98.20;;;;;;6167447;23;20819;-85
2024/02/08 02:10:30;;;;;;;1.60;1.30;;;5.20;98.20;;;;;;6191527;23;20416;-84
2024/02/08 02:13:10;;;;;;;1.60;1.30;;;5.20;98.20;;;;;;6165294;23;20615;-85
2024/02/08 02:15:42;;;;;;;1.60;1.30;;;5.10;98.20;;;;;;6190009;23;20495;-84
2024/02/08 02:18:12;;;;;;;1.67;1.40;;;5.10;98.20;;;;;;6165771;23;20448;-85
2024/02/08 02:20:57;;;;;;;1.60;1.40;;;5.10;98.20;;;;;;6181907;23;20452;-85
2024/02/08 02:23:29;;;;;;;1.60;1.40;;;5.10;98.20;;;;;;6141016;23;20437;-86
2024/02/08 02:26:05;;;;;;;1.60;1.30;;;5.10;98.20;;;;;;6167243;23;20432;-84
2024/02/08 02:28:33;;;;;;;1.67;1.50;;;5.10;98.20;;;;;;6181776;23;20432;-83
2024/02/08 02:31:12;;;;;;;;;;;;;;;;;;;;;
2024/02/08 02:33:42;;;;;;;1.60;1.40;;;5.10;98.20;;;;;;6180380;23;20732;-85
2024/02/08 02:36:15;;;;;;;1.60;1.30;;;5.20;98.20;;;;;;6175284;23;20854;-86
2024/02/08 02:39:01;;;;;;;;;;;;;;;;;;;;;
2024/02/08 02:41:40;;;;;;;1.70;1.40;;;5.10;98.20;;;;;;6167520;23;21122;-84
2024/02/08 02:44:24;;;;;;;1.70;1.40;;;5.10;98.20;;;;;;6194576;23;20487;-85
2024/02/08 02:47:08;;;;;;;1.67;1.30;;;5.10;98.20;;;;;;6174311;23;20447;-85
2024/02/08 02:49:36;;;;;;;1.60;1.30;;;5.10;98.20;;;;;;6187374;23;20414;-85
2024/02/08 02:54:53;;;;;;;1.60;1.47;;;5.20;98.20;;;;;;6180859;23;20499;-84
2024/02/08 02:57:28;;;;;;;1.60;1.20;;;5.20;98.20;;;;;;6168338;23;20443;-87
2024/02/08 03:00:15;;;;;;;1.60;1.30;;;5.20;98.20;;;;;;6182004;23;20444;-86
2024/02/08 03:02:59;;;;;;;1.60;1.30;;;5.20;98.20;;;;;;6168341;23;20814;-85
2024/02/08 03:05:31;;;;;;;1.60;1.30;;;5.20;98.20;;;;;;6194505;23;20444;-84
2024/02/08 03:07:58;;;;;;;1.60;1.30;;;5.20;98.20;;;;;;6168066;23;20447;-85
2024/02/08 03:10:29;;;;;;;1.70;1.40;;;5.20;98.20;;;;;;6183656;23;20636;-84
2024/02/08 03:12:57;;;;;;;1.60;1.37;;;5.20;98.20;;;;;;6166880;23;20546;-85
2024/02/08 03:15:27;;;;;;;1.60;1.30;;;5.20;98.20;;;;;;6193884;23;20514;-86
2024/02/08 03:18:03;;;;;;;1.60;1.33;;;5.20;98.20;;;;;;6168166;23;20557;-86
2024/02/08 03:20:30;;;;;;;1.70;1.30;;;5.20;98.20;;;;;;6183110;23;20891;-86
2024/02/08 03:23:14;;;;;;;1.70;1.50;;;5.20;98.20;;;;;;6168479;23;20531;-84
2024/02/08 03:25:49;;;;;;;1.63;1.47;;;5.10;98.20;;;;;;6192140;23;20447;-84
2024/02/08 03:28:24;;;;;;;1.60;1.27;;;5.10;98.20;;;;;;6143870;23;20427;-84
2024/02/08 03:30:56;;;;;;;1.60;1.30;;;5.10;98.20;;;;;;6177662;23;20932;-84
2024/02/08 03:33:28;;;;;;;1.60;1.40;;;5.10;98.20;;;;;;6193368;23;20420;-82
2024/02/08 03:35:57;;;;;;;1.63;1.40;;;5.10;98.20;;;;;;6179717;23;20843;-81
2024/02/08 03:38:30;;;;;;;1.60;1.30;;;5.10;98.20;;;;;;6182579;23;20439;-81
2024/02/08 03:40:58;;;;;;;1.60;1.23;;;5.10;98.20;;;;;;6178138;23;20440;-82
2024/02/08 03:43:27;;;;;;;1.63;1.30;;;5.10;98.20;;;;;;6182331;23;20459;-83
2024/02/08 03:45:55;;;;;;;1.60;1.30;;;5.20;98.20;;;;;;6169753;23;20495;-81
2024/02/08 03:48:46;;;;;;;1.70;1.37;;;5.20;98.20;;;;;;6182873;23;20420;-82
2024/02/08 03:51:24;;;;;;;1.60;1.30;;;5.20;98.20;;;;;;6176872;23;20450;-82
2024/02/08 03:53:56;;;;;;;1.60;1.30;;;5.10;98.20;;;;;;6192661;23;20456;-82
2024/02/08 03:56:36;;;;;;;1.60;1.30;;;5.20;98.20;;;;;;6169333;23;20502;-82
2024/02/08 03:59:11;;;;;;;1.60;1.30;;;5.10;98.20;;;;;;6192224;23;20438;-82
2024/02/08 04:01:43;;;;;;;4.30;4.00;;;5.20;98.20;;;;;;6174752;23;20448;-81
2024/02/08 04:04:17;;;;;;;1.70;1.50;;;5.20;98.20;;;;;;6182681;23;20471;-82
2024/02/08 04:07:20;;;;;;;1.60;1.30;;;5.20;98.20;;;;;;6174248;23;20550;-81
2024/02/08 04:55:37;;;;;;;1.60;1.30;;;5.10;98.20;;;;;;6184903;23;20447;-85
2024/02/08 04:58:04;;;;;;;1.60;1.30;;;5.10;98.20;;;;;;6169251;23;20839;-85
2024/02/08 05:00:37;;;;;;;1.60;1.40;;;5.10;98.20;;;;;;6192853;23;20439;-83
2024/02/08 05:03:07;;;;;;;1.60;1.40;;;5.10;98.20;;;;;;6165597;23;20448;-84
2024/02/08 05:05:34;;;;;;;1.60;1.20;;;5.10;98.20;;;;;;6195031;23;20441;-82
2024/02/08 05:08:04;;;;;;;1.60;1.30;;;5.10;98.20;;;;;;6167765;23;20448;-85
2024/02/08 05:10:31;;;;;;;1.60;1.30;;;5.10;98.20;;;;;;6192474;23;20415;-82
2024/02/08 05:13:04;;;;;;;1.60;1.30;;;5.00;98.20;;;;;;6165768;23;20452;-80
2024/02/08 05:15:31;;;;;;;1.67;1.40;;;5.00;98.20;;;;;;6194273;23;20450;-82
2024/02/08 05:18:01;;;;;;;1.60;1.30;;;5.00;98.20;;;;;;6168713;23;20454;-81
2024/02/08 05:20:36;;;;;;;1.60;1.30;;;5.00;98.20;;;;;;6182231;23;20455;-81
2024/02/08 05:23:08;;;;;;;1.60;1.30;;;5.00;98.20;;;;;;6167799;23;20458;-80
2024/02/08 05:28:30;;;;;;;1.60;1.40;;;5.00;98.20;;;;;;6141801;23;20786;-80
2024/02/08 05:30:56;;;;;;;1.60;1.30;;;5.10;98.20;;;;;;6167715;23;20491;-81
2024/02/08 05:33:34;;;;;;;1.60;1.30;;;5.10;98.20;;;;;;6192551;23;20452;-81
2024/02/08 05:36:29;;;;;;;1.67;1.30;;;5.10;98.20;;;;;;6167209;23;20463;-81
2024/02/08 05:39:04;;;;;;;1.67;1.43;;;5.10;98.20;;;;;;6192620;23;20950;-80
2024/02/08 05:41:36;;;;;;;1.60;1.27;;;5.10;98.20;;;;;;6178280;23;20848;-79
2024/02/08 05:44:10;;;;;;;1.60;1.30;;;5.10;98.20;;;;;;6183573;23;20404;-82
2024/02/08 05:53:32;;;;;;;1.63;1.40;;;5.10;98.20;;;;;;6023186;23;20440;-82
2024/02/08 05:59:29;;;;;;;1.67;1.40;;;5.10;98.20;;;;;;6005537;23;20432;-83
2024/02/08 06:02:01;;;;;;;1.60;1.37;;;5.10;98.20;;;;;;6047178;23;20455;-83
2024/02/08 06:04:34;;;;;;;1.60;1.30;;;5.10;98.20;;;;;;6122510;23;20532;-81
2024/02/08 06:07:05;;;;;;;1.60;1.30;;;5.10;98.20;;;;;;6172823;23;20531;-82
2024/02/08 06:09:47;;;;;;;1.70;1.40;;;5.10;98.20;;;;;;6183186;23;20405;-81
2024/02/08 06:18:35;;;;;;;1.60;1.30;;;5.10;98.20;;;;;;6091752;23;20512;-82
2024/02/08 06:24:32;;;;;;;1.70;1.50;;;5.10;98.20;;;;;;6182954;23;20439;-82
2024/02/08 06:27:33;;;;;;;1.60;1.30;;;5.10;98.20;;;;;;6172351;23;20764;-82
2024/02/08 06:30:18;;;;;;;1.60;1.30;;;5.00;98.20;;;;;;6178194;23;20434;-82
2024/02/08 06:32:46;;;;;;;1.60;1.30;;;5.00;98.20;;;;;;6161551;23;20505;-82
2024/02/08 06:38:40;;;;;;;1.60;1.23;;;5.00;98.20;;;;;;6141295;23;20436;-83
2024/02/08 06:41:09;;;;;;;1.60;1.20;;;5.00;98.20;;;;;;6176112;23;20443;-81
2024/02/08 06:43:57;;;;;;;1.63;1.30;;;5.10;98.20;;;;;;6193172;23;20443;-82
2024/02/08 06:47:17;;;;;;;1.60;1.40;;;5.10;98.20;;;;;;6173305;23;20527;-81
2024/02/08 07:37:25;;;;;;;1.60;1.30;;;5.10;98.20;;;;;;6185361;23;20486;-82
2024/02/08 07:40:00;;;;;;;1.60;1.20;;;5.10;98.20;;;;;;6213778;23;20407;-83
2024/02/08 07:42:32;;;;;;;1.60;1.50;;;5.10;98.20;;;;;;6176046;23;20517;-83
2024/02/08 07:45:04;;;;;;;1.60;1.30;;;5.00;98.20;;;;;;6210331;23;20414;-82
2024/02/08 07:47:33;;;;;;;1.60;1.33;;;5.10;98.20;;;;;;6177239;23;20869;-83
2024/02/08 07:50:04;;;;;;;1.60;1.30;;;5.10;98.20;;;;;;6210295;23;20455;-83
2024/02/08 07:52:45;;;;;;;1.70;1.40;;;5.10;98.20;;;;;;6178581;23;20452;-84
2024/02/08 07:55:26;;;;;;;1.67;1.30;;;5.00;98.20;;;;;;6226295;23;20572;-85
2024/02/08 07:58:07;;;;;;;1.70;1.40;;;5.00;98.20;;;;;;6178454;23;20454;-85
2024/02/08 08:00:42;;;;;;;1.60;1.40;;;5.00;98.20;;;;;;6218448;23;20431;-87
2024/02/08 08:03:15;;;;;;;1.60;1.40;;;5.10;98.20;;;;;;6175369;23;20447;-84
2024/02/08 08:05:56;;;;;;;1.80;1.70;;;5.10;98.20;;;;;;6218218;23;20407;-84
2024/02/08 08:08:29;;;;;;;1.60;1.30;;;5.10;98.20;;;;;;6170650;23;20431;-87
2024/02/08 08:11:02;;;;;;;1.67;1.40;;;5.10;98.20;;;;;;6204833;23;20438;-87
2024/02/08 08:16:36;;;;;;;1.67;1.40;;;5.20;98.20;;;;;;6192906;23;20495;-83
2024/02/08 08:19:12;;;;;;;1.60;1.20;;;5.20;98.20;;;;;;6206205;23;20415;-84
2024/02/08 08:24:29;;;;;;;1.70;1.30;;;5.20;98.20;;;;;;6232221;23;20456;-80
2024/02/08 08:27:06;;;;;;;1.70;1.40;;;5.20;98.20;;;;;;6184406;23;20448;-84
2024/02/08 08:29:42;;;;;;;1.60;1.30;;;5.20;98.20;;;;;;6203869;23;20498;-84
2024/02/08 08:37:46;;;;;;;1.70;1.43;;;5.20;98.20;;;;;;6179309;23;20455;-87
2024/02/08 08:40:37;;;;;;;1.60;1.30;;;5.20;98.20;;;;;;6224674;23;20414;-83
2024/02/08 08:43:10;;;;;;;1.70;1.40;;;5.20;98.20;;;;;;6170888;23;20523;-82
2024/02/08 08:45:40;;;;;;;1.70;1.40;;;5.20;98.20;;;;;;6211488;23;20403;-82
2024/02/08 08:48:08;;;;;;;2.73;2.37;;;5.20;98.20;;;;;;6169749;23;20444;-83
2024/02/08 08:50:38;;;;;;;1.63;1.30;;;5.20;98.20;;;;;;6210762;23;20422;-83
2024/02/08 08:53:16;;;;;;;1.63;1.30;;;5.20;98.20;;;;;;6171866;23;20447;-83
2024/02/08 08:55:49;;;;;;;1.60;1.30;;;5.20;98.20;;;;;;6215825;23;20458;-86
2024/02/08 08:58:16;;;;;;;1.60;1.30;;;5.20;98.20;;;;;;6173116;23;20435;-83
2024/02/08 09:00:46;;;;;;;1.67;1.37;;;5.30;98.20;;;;;;6211917;23;20542;-83
2024/02/08 09:03:25;;;;;;;1.63;1.30;;;5.30;98.20;;;;;;6169545;23;20462;-82
2024/02/08 09:27:29;;;;;;;;;;;;;;;;;;;;;
2024/02/08 09:30:37;;;;;;;1.70;1.40;;;5.60;98.20;;;;;;6050969;23;20428;-83
2024/02/08 09:33:48;;;;;;;1.70;1.60;;;5.70;98.20;;;;;;5999413;23;20445;-82
2024/02/08 10:29:14;;;;;;;1.60;1.30;;;5.70;98.20;;;;;;6217540;23;20797;-83
2024/02/08 10:34:39;;;;;;;1.60;1.30;;;5.70;98.20;;;;;;6196423;23;20429;-81
2024/02/08 10:37:46;;;;;;;1.60;1.30;;;5.70;98.20;;;;;;6178971;23;20470;-83
2024/02/08 10:40:35;;;;;;;1.60;1.20;;;5.80;98.20;;;;;;6208793;23;20415;-85
2024/02/08 10:43:24;;;;;;;1.60;1.20;;;5.80;98.20;;;;;;6168984;23;20443;-84
2024/02/08 10:46:34;;;;;;;1.60;1.30;;;5.80;98.20;;;;;;6221478;23;20430;-84
2024/02/08 10:49:22;;;;;;;1.67;1.30;;;5.80;98.20;;;;;;6138572;23;20424;-83
2024/02/08 10:52:33;;;;;;;1.67;1.37;;;5.90;98.20;;;;;;6198674;23;20443;-85
2024/02/08 10:58:28;;;;;;;1.60;1.30;;;5.90;98.20;;;;;;6128825;23;20784;-84
2024/02/08 11:01:32;;;;;;;1.60;1.30;;;5.90;98.20;;;;;;6171996;23;20555;-83
2024/02/08 11:04:51;;;;;;;1.63;1.30;;;5.90;98.20;;;;;;6182036;23;20478;-84
2024/02/08 11:10:20;;;;;;;1.60;1.20;;;5.90;98.20;;;;;;6117069;23;20921;-83
2024/02/08 11:13:07;;;;;;;;;;;;;;;;;;;;;
2024/02/08 11:15:39;;;;;;;1.67;1.30;;;6.00;98.20;;;;;;6191552;23;20487;-84
2024/02/08 11:18:29;;;;;;;1.70;1.50;;;6.00;98.20;;;;;;6163973;23;20443;-83
2024/02/08 11:21:03;;;;;;;1.60;1.20;;;6.00;98.20;;;;;;6164156;23;20518;-81
2024/02/08 11:23:32;;;;;;;1.60;1.30;;;6.00;98.20;;;;;;6178788;23;20408;-83
2024/02/08 11:26:07;;;;;;;1.70;1.40;;;6.00;98.20;;;;;;6163910;23;20822;-80
2024/02/08 11:28:44;;;;;;;1.70;1.40;;;6.00;98.20;;;;;;6185865;23;20454;-79
2024/02/08 11:31:16;;;;;;;1.63;1.30;;;6.00;98.20;;;;;;6163318;23;20454;-83
2024/02/08 11:33:44;;;;;;;1.60;1.30;;;6.00;98.20;;;;;;6176554;23;20400;-80
2024/02/08 11:36:16;;;;;;;1.60;1.20;;;6.00;98.20;;;;;;6165044;23;20580;-81
2024/02/08 11:38:46;;;;;;;1.63;1.40;;;6.00;98.20;;;;;;6177893;23;20400;-81
2024/02/08 11:41:15;;;;;;;1.60;1.20;;;6.00;98.20;;;;;;6171403;23;20448;-81
2024/02/08 11:43:47;;;;;;;1.60;1.30;;;6.10;98.20;;;;;;6188384;23;20419;-83
2024/02/08 11:46:18;;;;;;;1.60;1.30;;;6.10;98.20;;;;;;6166383;23;20450;-82
2024/02/08 11:49:31;;;;;;;1.60;1.20;;;6.10;98.20;;;;;;6181798;23;20440;-82
2024/02/08 11:52:06;;;;;;;1.60;1.30;;;6.10;98.20;;;;;;6167194;23;20451;-82
2024/02/08 11:54:37;;;;;;;1.60;1.30;;;6.10;98.20;;;;;;6189213;23;20845;-82
2024/02/08 11:57:06;;;;;;;1.67;1.40;;;6.10;98.20;;;;;;6168496;23;20447;-81
2024/02/08 11:59:37;;;;;;;1.60;1.20;;;6.20;98.20;;;;;;6179507;23;20416;-83
2024/02/08 12:02:10;;;;;;;3.00;2.23;;;6.20;98.20;;;;;;6167622;23;20478;-84
2024/02/08 12:04:39;;;;;;;1.60;1.23;;;6.20;98.20;;;;;;6190279;23;20400;-82
2024/02/08 12:07:21;;;;;;;1.60;1.30;;;6.10;98.20;;;;;;6168711;23;20452;-82
2024/02/08 12:09:59;;;;;;;1.70;1.40;;;6.20;98.20;;;;;;6182037;23;20416;-84
2024/02/08 12:12:29;;;;;;;1.60;1.20;;;6.20;98.20;;;;;;6167477;23;20459;-84
2024/02/08 12:15:02;;;;;;;1.67;1.33;;;6.30;98.20;;;;;;6191237;23;20479;-84
2024/02/08 12:17:32;;;;;;;1.60;1.30;;;6.40;98.20;;;;;;6168575;23;20452;-84
2024/02/08 12:25:33;;;;;;;1.60;1.20;;;6.40;98.20;;;;;;6195244;22;20544;-86
2024/02/08 12:28:20;;;;;;;1.70;1.37;;;6.40;98.20;;;;;;6170037;23;20448;-85
2024/02/08 12:31:00;;;;;;;2.50;2.30;;;6.50;98.20;;;;;;6202183;23;20435;-85
2024/02/08 12:33:30;;;;;;;1.70;1.37;;;6.50;98.20;;;;;;6196434;23;20411;-85
2024/02/08 12:36:23;;;;;;;1.60;1.20;;;6.60;98.20;;;;;;6200714;23;20411;-85
2024/02/08 12:39:17;;;;;;;1.60;1.30;;;6.60;98.20;;;;;;6202341;23;20435;-85
2024/02/08 12:41:55;;;;;;;1.67;1.30;;;6.60;98.20;;;;;;6191241;23;20444;-83
2024/02/08 12:44:24;;;;;;;1.60;1.30;;;6.60;98.20;;;;;;6207921;23;20403;-84
2024/02/08 12:47:01;;;;;;;1.63;1.30;;;6.60;98.20;;;;;;6186827;23;20467;-84
2024/02/08 12:49:29;;;;;;;1.60;1.30;;;6.70;98.20;;;;;;6209785;23;20537;-84
2024/02/08 12:52:15;;;;;;;1.60;1.30;;;6.70;98.20;;;;;;6181994;23;20512;-85
2024/02/08 12:54:54;;;;;;;1.60;1.30;;;6.70;98.20;;;;;;6212810;23;20423;-84
2024/02/08 13:01:04;;;;;;;1.63;1.40;;;6.80;98.20;;;;;;6199742;23;20442;-84
2024/02/08 13:03:39;;;;;;;1.70;1.30;;;6.80;98.20;;;;;;6169739;23;20507;-83
2024/02/08 13:06:18;;;;;;;1.70;1.40;;;6.80;98.20;;;;;;6198143;23;20414;-83
2024/02/08 13:09:25;;;;;;;1.70;1.30;;;6.80;98.20;;;;;;6199053;23;20396;-83
2024/02/08 13:12:19;;;;;;;1.60;1.30;;;6.80;98.20;;;;;;6184275;23;20444;-83
2024/02/08 13:18:01;;;;;;;1.60;1.33;;;6.90;98.20;;;;;;6163817;23;20522;-81
2024/02/08 13:23:27;;;;;;;1.63;1.30;;;6.90;98.20;;;;;;6152061;23;20553;-81
2024/02/08 13:26:00;;;;;;;1.60;1.20;;;6.90;98.20;;;;;;6199094;23;20431;-82
2024/02/08 13:31:27;;;;;;;1.60;1.10;;;6.90;98.20;;;;;;6163300;23;21332;-83
2024/02/08 13:34:15;;;;;;;;;;;;;;;;;;;;;
2024/02/08 13:36:43;;;;;;;1.63;1.40;;;6.90;98.20;;;;;;6186998;23;20642;-79
2024/02/08 13:39:11;;;;;;;1.60;1.20;;;6.90;98.20;;;;;;6202253;23;20433;-81
2024/02/08 13:41:46;;;;;;;1.60;1.20;;;6.90;98.20;;;;;;6186246;23;20444;-82
2024/02/08 13:47:05;;;;;;;1.60;1.20;;;7.00;98.20;;;;;;6176330;23;20988;-83
2024/02/08 13:55:00;;;;;;;1.70;1.40;;;7.10;98.20;;;;;;6180618;23;20953;-84
2024/02/08 13:57:27;;;;;;;1.67;1.27;;;7.10;98.20;;;;;;6174439;23;20452;-84
2024/02/08 14:00:03;;;;;;;1.63;1.30;;;7.20;98.20;;;;;;6212120;23;20411;-82
2024/02/08 14:02:42;;;;;;;1.60;1.20;;;7.10;98.20;;;;;;6170154;23;20475;-83
2024/02/08 14:05:23;;;;;;;1.70;1.33;;;7.20;98.20;;;;;;6207700;23;20709;-83
2024/02/08 14:08:05;;;;;;;1.70;1.43;;;7.20;98.20;;;;;;6166997;23;20790;-82
2024/02/08 14:13:28;;;;;;;1.60;1.10;;;7.20;98.20;;;;;;6167255;23;20427;-82
2024/02/08 14:16:25;;;;;;;1.60;1.30;;;7.20;98.20;;;;;;6202083;23;20415;-84
2024/02/08 14:18:59;;;;;;;1.67;1.30;;;7.20;98.20;;;;;;6199792;23;20423;-86
2024/02/08 14:24:36;;;;;;;1.60;1.20;;;7.30;98.20;;;;;;6186168;23;20541;-84
2024/02/08 14:27:07;;;;;;;1.60;1.23;;;7.30;98.20;;;;;;6181257;23;20508;-85
2024/02/08 14:29:39;;;;;;;1.70;1.40;;;7.30;98.20;;;;;;6208795;23;20449;-85
2024/02/08 14:32:08;;;;;;;1.60;1.20;;;7.40;98.20;;;;;;6177204;23;20448;-84
2024/02/08 14:34:59;;;;;;;1.70;1.40;;;7.40;98.20;;;;;;6210053;23;20419;-85
2024/02/08 14:37:29;;;;;;;1.70;1.40;;;7.40;98.20;;;;;;6160403;23;20497;-84
2024/02/08 14:39:56;;;;;;;1.60;1.40;;;7.40;98.20;;;;;;6218034;23;20478;-85
2024/02/08 14:42:43;;;;;;;1.60;1.20;;;7.40;98.20;;;;;;6175468;23;20786;-83
2024/02/08 14:45:44;;;;;;;1.60;1.20;;;7.40;98.20;;;;;;6220071;23;21152;-84
2024/02/08 14:48:11;;;;;;;1.63;1.33;;;7.40;98.20;;;;;;6183149;23;20481;-85
2024/02/08 14:51:05;;;;;;;1.60;1.20;;;7.50;98.20;;;;;;6216816;23;20408;-84
2024/02/08 14:53:53;;;;;;;1.70;1.40;;;7.50;98.20;;;;;;6165410;23;20518;-84
2024/02/08 14:57:03;;;;;;;1.63;1.27;;;7.50;98.20;;;;;;6161084;23;20447;-84
2024/02/08 14:59:41;;;;;;;1.60;1.20;;;7.60;98.20;;;;;;6208915;23;20426;-85
2024/02/08 15:02:32;;;;;;;1.60;1.20;;;7.60;98.20;;;;;;6178889;23;21097;-86
2024/02/08 15:05:40;;;;;;;1.70;1.33;;;7.60;98.20;;;;;;6214555;23;20430;-85
2024/02/08 15:08:38;;;;;;;1.70;1.30;;;7.70;98.20;;;;;;6164937;23;21279;-83
2024/02/08 15:11:26;;;;;;;1.60;1.23;;;7.70;98.20;;;;;;6196586;23;20443;-84
2024/02/08 15:14:06;;;;;;;;;;;;;;;;;;;;;
2024/02/08 15:19:26;;;;;;;1.60;1.20;;;7.80;98.20;;;;;;6190299;23;20603;-84
2024/02/08 15:23:09;;;;;;;1.60;1.20;;;7.80;98.20;;;;;;6181682;23;20440;-86
2024/02/08 15:28:35;;;;;;;2.17;1.97;;;7.90;98.20;;;;;;6009515;23;21018;-84
2024/02/08 15:31:15;;;;;;;1.60;1.20;;;8.00;98.20;;;;;;6091289;23;20455;-84
2024/02/08 15:40:09;;;;;;;1.70;1.40;;;8.20;98.20;;;;;;6075326;23;20414;-83
2024/02/08 15:43:48;;;;;;;1.60;1.20;;;8.30;98.20;;;;;;6127732;23;20528;-84
2024/02/08 15:46:25;;;;;;;1.60;1.20;;;8.30;98.20;;;;;;6152748;23;21290;-85
2024/02/08 15:49:14;;;;;;;1.70;1.40;;;8.40;98.20;;;;;;6171100;23;20394;-84
2024/02/08 15:51:49;;;;;;;1.70;1.30;;;8.40;98.20;;;;;;6158210;23;20456;-85
2024/02/08 15:54:37;;;;;;;1.60;1.20;;;8.40;98.20;;;;;;6176948;23;20454;-85
2024/02/08 15:57:19;;;;;;;1.60;1.10;;;8.40;98.20;;;;;;6154102;23;20452;-84
2024/02/08 16:00:24;;;;;;;1.60;1.20;;;8.50;98.20;;;;;;6183760;23;20474;-84
2024/02/08 16:02:58;;;;;;;1.60;1.27;;;8.50;98.20;;;;;;6136229;23;20452;-82
2024/02/08 16:05:44;;;;;;;1.63;1.20;;;8.60;98.20;;;;;;6192190;23;20412;-84
2024/02/08 16:08:46;;;;;;;1.60;1.23;;;8.60;98.20;;;;;;6138370;23;20451;-84
2024/02/08 16:11:23;;;;;;;1.60;1.20;;;8.70;98.20;;;;;;6163102;23;20448;-84
2024/02/08 16:14:15;;;;;;;1.70;1.30;;;8.70;98.20;;;;;;6171943;23;20797;-83
2024/02/08 16:19:58;;;;;;;1.70;1.50;;;8.80;98.20;;;;;;6138967;23;20498;-84
2024/02/08 16:22:47;;;;;;;1.60;1.20;;;8.80;98.20;;;;;;6139079;23;20480;-83
2024/02/08 16:26:06;;;;;;;1.60;1.17;;;8.80;98.20;;;;;;6191204;23;20416;-81
2024/02/08 16:28:45;;;;;;;1.60;1.10;;;8.90;98.20;;;;;;6141564;23;20453;-81
2024/02/08 16:31:42;;;;;;;1.60;1.10;;;8.90;98.20;;;;;;6168011;23;20448;-83
2024/02/08 16:34:22;;;;;;;1.60;1.20;;;9.00;98.20;;;;;;6166057;23;20916;-83
2024/02/08 16:37:42;;;;;;;1.63;1.20;;;9.00;98.20;;;;;;6194305;23;20423;-84
2024/02/08 16:40:28;;;;;;;1.60;1.17;;;9.00;98.20;;;;;;6159099;23;20458;-82
2024/02/08 16:43:10;;;;;;;1.67;1.30;;;9.10;98.20;;;;;;6140272;23;20448;-83
2024/02/08 16:46:05;;;;;;;1.60;1.20;;;9.10;98.20;;;;;;6191119;23;20432;-84
2024/02/08 16:48:47;;;;;;;1.60;1.20;;;9.10;98.20;;;;;;6140474;23;20440;-83
2024/02/08 16:51:17;;;;;;;1.67;1.30;;;9.20;98.20;;;;;;6168472;23;20495;-85
2024/02/08 16:53:50;;;;;;;1.60;1.20;;;9.20;98.20;;;;;;6171611;23;20415;-84
2024/02/08 16:56:22;;;;;;;1.60;1.20;;;9.30;98.20;;;;;;6167869;23;20499;-83
2024/02/08 16:59:25;;;;;;;1.67;1.20;;;9.40;98.20;;;;;;6172006;23;21205;-83
2024/02/08 17:02:03;;;;;;;1.60;1.20;;;9.50;98.20;;;;;;6158874;23;20985;-83
2024/02/08 17:04:48;;;;;;;1.60;1.10;;;9.60;98.20;;;;;;6171417;23;20440;-82
2024/02/08 17:07:24;;;;;;;1.70;1.40;;;9.70;98.20;;;;;;6150244;23;21008;-82
2024/02/08 17:09:58;;;;;;;1.70;1.27;;;9.90;98.20;;;;;;6176385;23;20666;-83
2024/02/08 17:12:44;;;;;;;1.60;1.13;;;10.10;98.20;;;;;;6144979;23;20865;-83
2024/02/08 17:15:29;;;;;;;1.70;1.20;;;10.20;98.20;;;;;;6180270;23;20688;-83
2024/02/08 17:18:05;;;;;;;1.60;1.10;;;10.30;98.20;;;;;;6142403;23;20457;-84
2024/02/08 17:20:42;;;;;;;1.60;1.20;;;10.40;98.20;;;;;;6180343;23;20408;-84
2024/02/08 17:23:19;;;;;;;1.60;1.10;;;10.50;98.20;;;;;;6140434;23;20453;-81
2024/02/08 17:25:55;;;;;;;1.60;1.10;;;10.60;98.20;;;;;;6190813;23;20428;-80
2024/02/08 17:31:21;;;;;;;1.60;1.20;;;10.70;98.20;;;;;;6163340;23;20455;-80
2024/02/08 17:33:49;;;;;;;2.17;1.77;;;10.70;98.20;;;;;;6165392;23;20479;-81
2024/02/08 17:36:16;;;;;;;1.60;1.20;;;10.80;98.20;;;;;;6165149;23;20449;-81
2024/02/08 17:38:44;;;;;;;1.60;1.20;;;10.90;98.20;;;;;;6166806;23;20411;-80
2024/02/08 17:41:15;;;;;;;1.60;1.17;;;10.90;98.20;;;;;;6164704;23;20440;-80
2024/02/08 17:43:54;;;;;;;1.93;1.73;;;11.00;98.20;;;;;;6163759;23;20439;-80
2024/02/08 17:46:21;;;;;;;1.70;1.40;;;11.00;98.20;;;;;;6163101;23;20448;-80
2024/02/08 17:48:53;;;;;;;1.60;1.10;;;11.10;98.20;;;;;;6165850;23;20510;-80
2024/02/08 17:51:31;;;;;;;1.60;1.20;;;11.10;98.20;;;;;;6162416;23;20464;-80
2024/02/08 17:54:00;;;;;;;1.60;1.10;;;11.20;98.20;;;;;;6169118;23;20411;-80
2024/02/08 17:56:30;;;;;;;1.60;1.10;;;11.20;98.20;;;;;;6164268;23;20441;-81
2024/02/08 17:58:59;;;;;;;1.60;1.07;;;11.30;98.20;;;;;;6166943;23;20418;-81
2024/02/08 18:01:31;;;;;;;1.60;1.10;;;11.30;98.20;;;;;;6168381;23;20487;-81
2024/02/08 18:04:03;;;;;;;1.60;1.20;;;11.30;98.20;;;;;;6166654;23;20436;-80
2024/02/08 18:06:36;;;;;;;1.60;1.10;;;11.40;98.20;;;;;;6165252;23;20448;-80
2024/02/08 18:09:04;;;;;;;1.60;1.10;;;11.40;98.20;;;;;;6174901;23;20814;-80
2024/02/08 18:11:36;;;;;;;1.60;1.10;;;11.40;98.20;;;;;;6163781;23;20476;-80
2024/02/08 18:14:08;;;;;;;1.60;1.20;;;11.40;98.20;;;;;;6166251;23;20477;-80
2024/02/08 18:16:42;;;;;;;1.60;1.10;;;11.40;98.20;;;;;;6165069;23;20453;-79
2024/02/08 18:19:08;;;;;;;1.70;1.30;;;11.40;98.20;;;;;;6178555;23;20481;-80
2024/02/08 18:22:51;;;;;;;1.60;1.10;;;11.50;98.20;;;;;;6158532;23;20575;-79
2024/02/08 18:25:28;;;;;;;1.60;1.10;;;11.50;98.20;;;;;;6073705;23;20832;-79
2024/02/08 18:27:55;;;;;;;1.60;1.27;;;11.50;98.20;;;;;;6142381;23;20988;-80
2024/02/08 18:30:26;;;;;;;1.60;1.10;;;11.50;98.20;;;;;;6181039;23;20444;-79
2024/02/08 18:32:54;;;;;;;1.60;1.10;;;11.60;98.20;;;;;;6143125;23;20455;-78
2024/02/08 18:35:23;;;;;;;1.60;1.10;;;11.60;98.20;;;;;;6194143;23;20417;-80